Time;durP1;ratioP1;P1;durP2;ratioP2;P2;SDS_P1;SDS_P2;PMS_P1;PMS_P2;Temp;Humidity;BMP_temperature;BMP_pressure;BME280_temperature;BME280_humidity;BME280_pressure;Samples;Min_cycle;Max_cycle;Signal;HPM_P1;HPM_P2
2023/03/18 00:00:47;;;;;;;23.23;9.50;;;;;12.20;100314.00;;;;9642923;30;20242;-80
2023/03/18 00:05:49;;;;;;;16.30;8.60;;;;;12.00;100303.00;;;;9661854;30;20282;-78
2023/03/18 00:10:51;;;;;;;24.73;9.83;;;;;11.60;100295.00;;;;9646983;30;20218;-77
2023/03/18 00:15:53;;;;;;;16.63;10.17;;;;;11.40;100278.00;;;;9652497;30;20237;-78
2023/03/18 00:20:57;;;;;;;16.43;9.97;;;;;11.20;100300.00;;;;9652741;30;20208;-80
2023/03/18 00:26:01;;;;;;;19.97;11.07;;;;;11.10;100310.00;;;;9674801;30;20289;-79
2023/03/18 00:31:09;;;;;;;20.27;10.13;;;;;11.00;100319.00;;;;9664238;30;20215;-79
2023/03/18 00:36:12;;;;;;;20.10;11.73;;;;;11.00;100320.00;;;;9645769;30;20220;-78
2023/03/18 00:41:14;;;;;;;16.63;11.47;;;;;11.00;100335.00;;;;9669160;30;20293;-78
2023/03/18 00:46:25;;;;;;;21.13;11.93;;;;;11.00;100336.00;;;;9613266;30;20208;-80
2023/03/18 00:51:30;;;;;;;24.07;12.53;;;;;11.00;100332.00;;;;9636839;30;20226;-80
2023/03/18 00:56:33;;;;;;;20.23;12.23;;;;;11.00;100341.00;;;;9641226;30;20286;-80
2023/03/18 01:01:36;;;;;;;20.37;13.17;;;;;11.10;100338.00;;;;9654713;30;20214;-79
2023/03/18 01:06:38;;;;;;;23.57;14.97;;;;;11.10;100343.00;;;;9623038;30;20211;-79
2023/03/18 01:11:43;;;;;;;24.13;13.07;;;;;11.10;100357.00;;;;9622739;30;20303;-80
2023/03/18 01:16:45;;;;;;;21.57;13.27;;;;;11.10;100357.00;;;;9667913;30;20227;-80
2023/03/18 01:21:47;;;;;;;19.83;14.03;;;;;11.10;100350.00;;;;9641367;30;20219;-80
2023/03/18 01:26:50;;;;;;;24.90;14.17;;;;;11.10;100354.00;;;;9670784;30;20211;-82
2023/03/18 01:31:53;;;;;;;20.47;13.33;;;;;11.10;100353.00;;;;9671788;30;20272;-80
2023/03/18 01:36:57;;;;;;;24.27;13.30;;;;;11.10;100364.00;;;;9607706;30;20247;-80
2023/03/18 01:42:05;;;;;;;20.60;13.13;;;;;11.00;100358.00;;;;9621725;30;20216;-81
2023/03/18 01:47:09;;;;;;;22.67;13.70;;;;;11.00;100358.00;;;;9625429;30;20212;-82
2023/03/18 01:52:17;;;;;;;21.90;13.77;;;;;11.00;100348.00;;;;9623295;30;20232;-82
2023/03/18 01:57:22;;;;;;;22.10;14.87;;;;;11.00;100335.00;;;;9641786;30;20295;-81
2023/03/18 02:02:25;;;;;;;22.50;14.43;;;;;11.00;100345.00;;;;9622665;30;20673;-81
2023/03/18 02:07:31;;;;;;;23.10;13.90;;;;;11.00;100358.00;;;;9604942;30;20264;-80
2023/03/18 02:12:37;;;;;;;19.63;13.00;;;;;11.00;100354.00;;;;9622693;30;20221;-80
2023/03/18 02:17:46;;;;;;;20.37;13.53;;;;;10.90;100347.00;;;;9611950;30;20235;-80
2023/03/18 02:22:53;;;;;;;21.33;13.13;;;;;10.90;100344.00;;;;9618983;30;20220;-80
2023/03/18 02:28:02;;;;;;;22.97;13.33;;;;;10.80;100337.00;;;;9583829;30;20224;-80
2023/03/18 02:33:09;;;;;;;21.10;12.70;;;;;10.80;100335.00;;;;9622693;30;20235;-81
2023/03/18 02:38:11;;;;;;;22.07;13.23;;;;;10.80;100343.00;;;;9636935;30;20236;-80
2023/03/18 02:43:19;;;;;;;23.27;13.80;;;;;10.70;100336.00;;;;9614305;30;20234;-81
2023/03/18 02:48:34;;;;;;;20.07;14.10;;;;;10.70;100346.00;;;;9593910;30;20267;-82
2023/03/18 02:53:37;;;;;;;23.07;13.33;;;;;10.60;100349.00;;;;9637421;30;20213;-82
2023/03/18 02:58:39;;;;;;;21.47;14.30;;;;;10.60;100356.00;;;;9629764;30;20960;-81
2023/03/18 03:03:43;;;;;;;23.27;14.90;;;;;10.50;100351.00;;;;9612009;30;20753;-81
2023/03/18 03:08:47;;;;;;;19.40;13.37;;;;;10.40;100354.00;;;;9604360;30;20262;-81
2023/03/18 03:13:49;;;;;;;20.30;13.27;;;;;10.30;100353.00;;;;9625230;30;20275;-82
2023/03/18 03:18:52;;;;;;;20.40;12.37;;;;;10.30;100354.00;;;;9643130;30;20240;-82
2023/03/18 03:23:55;;;;;;;19.67;11.77;;;;;10.30;100353.00;;;;9621410;30;20216;-81
2023/03/18 03:28:57;;;;;;;19.87;12.33;;;;;10.20;100361.00;;;;9609273;30;20217;-82
2023/03/18 03:33:59;;;;;;;18.60;11.40;;;;;10.10;100363.00;;;;9638426;30;20236;-81
2023/03/18 03:39:03;;;;;;;17.10;11.93;;;;;10.00;100361.00;;;;9608192;30;20322;-82
2023/03/18 03:44:09;;;;;;;18.27;10.93;;;;;9.80;100364.00;;;;9642445;30;20247;-81
2023/03/18 03:49:11;;;;;;;18.70;11.63;;;;;9.70;100377.00;;;;9593370;30;21014;-81
2023/03/18 03:54:14;;;;;;;14.03;10.63;;;;;9.60;100380.00;;;;9602220;30;20224;-81
2023/03/18 03:59:17;;;;;;;16.80;11.53;;;;;9.50;100385.00;;;;9585240;30;20239;-81
2023/03/18 04:04:40;;;;;;;19.33;12.73;;;;;9.40;100380.00;;;;9637283;30;20275;-81
2023/03/18 04:09:50;;;;;;;16.90;11.47;;;;;9.30;100376.00;;;;9608106;30;20890;-82
2023/03/18 04:14:52;;;;;;;22.53;13.33;;;;;9.30;100377.00;;;;9650681;30;20549;-81
2023/03/18 04:19:55;;;;;;;16.30;11.17;;;;;9.30;100371.00;;;;9613823;30;20236;-82
2023/03/18 04:25:04;;;;;;;23.73;11.97;;;;;9.30;100375.00;;;;9634045;30;20253;-81
2023/03/18 04:30:08;;;;;;;19.53;12.73;;;;;9.20;100375.00;;;;9643921;30;20213;-81
2023/03/18 04:35:22;;;;;;;18.60;11.90;;;;;9.10;100378.00;;;;9628735;30;20215;-81
2023/03/18 04:40:24;;;;;;;20.80;12.73;;;;;9.00;100369.00;;;;9613531;30;20223;-81
2023/03/18 04:45:28;;;;;;;18.47;13.03;;;;;8.90;100365.00;;;;9592273;30;20212;-82
2023/03/18 04:50:34;;;;;;;21.53;13.77;;;;;8.90;100377.00;;;;9622271;30;20247;-81
2023/03/18 04:55:38;;;;;;;19.87;14.07;;;;;8.80;100380.00;;;;9639332;30;20245;-81
2023/03/18 05:00:43;;;;;;;20.73;13.83;;;;;8.70;100390.00;;;;9620979;30;20209;-80
2023/03/18 05:05:54;;;;;;;20.27;13.50;;;;;8.60;100387.00;;;;9605866;30;20227;-81
2023/03/18 05:11:04;;;;;;;19.77;13.80;;;;;8.50;100381.00;;;;9620115;30;20213;-81
2023/03/18 05:16:08;;;;;;;24.00;13.97;;;;;8.40;100391.00;;;;9637489;30;20231;-81
2023/03/18 05:21:11;;;;;;;21.17;14.90;;;;;8.30;100398.00;;;;9624729;30;20947;-81
2023/03/18 05:26:13;;;;;;;22.70;14.77;;;;;8.40;100395.00;;;;9658520;30;20263;-81
2023/03/18 05:31:19;;;;;;;25.43;15.57;;;;;8.50;100396.00;;;;9640600;30;20210;-80
2023/03/18 05:36:22;;;;;;;24.87;15.23;;;;;8.50;100376.00;;;;9611603;30;20233;-80
2023/03/18 05:41:31;;;;;;;27.47;16.03;;;;;8.60;100381.00;;;;9611649;30;20301;-81
2023/03/18 05:46:33;;;;;;;24.23;15.30;;;;;8.60;100379.00;;;;9589907;30;20224;-82
2023/03/18 05:51:50;;;;;;;23.43;15.20;;;;;8.70;100384.00;;;;9633923;30;20203;-81
2023/03/18 05:57:07;;;;;;;23.03;15.00;;;;;8.70;100390.00;;;;9625481;30;20234;-81
2023/03/18 06:02:11;;;;;;;24.40;16.40;;;;;8.80;100398.00;;;;9631649;30;20717;-82
2023/03/18 06:07:14;;;;;;;23.60;15.20;;;;;8.80;100399.00;;;;9593628;30;20663;-81
2023/03/18 06:12:19;;;;;;;24.07;14.83;;;;;8.90;100394.00;;;;9608057;30;20216;-81
2023/03/18 06:17:21;;;;;;;27.60;14.80;;;;;8.90;100399.00;;;;9622350;30;20292;-81
2023/03/18 06:22:23;;;;;;;24.60;15.20;;;;;9.10;100402.00;;;;9661112;30;20307;-81
2023/03/18 06:27:25;;;;;;;26.43;14.77;;;;;9.30;100401.00;;;;9623117;30;20497;-81
2023/03/18 06:32:32;;;;;;;22.40;15.50;;;;;9.70;100397.00;;;;9605217;30;20244;-81
2023/03/18 06:37:37;;;;;;;20.23;14.87;;;;;9.80;100399.00;;;;9621487;30;20242;-81
2023/03/18 06:42:40;;;;;;;21.53;15.17;;;;;9.80;100417.00;;;;9622119;30;20216;-81
2023/03/18 06:47:48;;;;;;;20.53;13.70;;;;;10.10;100425.00;;;;9590503;30;20227;-81
2023/03/18 06:52:51;;;;;;;17.57;12.87;;;;;10.20;100421.00;;;;9615971;30;20216;-83
2023/03/18 06:57:59;;;;;;;19.03;13.93;;;;;10.60;100415.00;;;;9618963;30;20271;-81
2023/03/18 07:03:10;;;;;;;20.20;13.17;;;;;11.40;100409.00;;;;9618030;30;20278;-82
2023/03/18 07:08:12;;;;;;;15.97;11.87;;;;;12.20;100415.00;;;;9610260;30;20780;-81
2023/03/18 07:13:15;;;;;;;13.27;10.27;;;;;12.70;100420.00;;;;9627946;30;20204;-83
2023/03/18 07:18:18;;;;;;;10.93;9.50;;;;;12.80;100415.00;;;;9624794;30;20232;-82
2023/03/18 07:23:20;;;;;;;10.77;8.97;;;;;13.40;100429.00;;;;9610721;30;20206;-83
2023/03/18 07:28:23;;;;;;;9.97;7.73;;;;;13.80;100425.00;;;;9607585;30;20213;-83
2023/03/18 07:33:27;;;;;;;11.00;7.40;;;;;14.00;100424.00;;;;9629013;30;20236;-84
2023/03/18 07:38:29;;;;;;;8.43;7.53;;;;;14.20;100438.00;;;;9611401;30;20298;-81
2023/03/18 07:43:32;;;;;;;8.13;7.20;;;;;13.60;100434.00;;;;9618861;30;20218;-82
2023/03/18 07:48:34;;;;;;;10.67;6.97;;;;;13.10;100436.00;;;;9600511;30;20213;-83
2023/03/18 07:53:37;;;;;;;10.10;7.07;;;;;12.70;100448.00;;;;9636336;30;20245;-83
2023/03/18 07:58:39;;;;;;;9.57;7.67;;;;;12.50;100446.00;;;;9625520;30;20586;-83
2023/03/18 08:03:42;;;;;;;11.00;7.60;;;;;12.50;100445.00;;;;9606818;30;20738;-83
2023/03/18 08:08:44;;;;;;;7.97;6.90;;;;;13.10;100464.00;;;;9647479;30;20236;-83
2023/03/18 08:13:46;;;;;;;10.53;7.60;;;;;13.70;100450.00;;;;9615634;30;20237;-82
2023/03/18 08:18:48;;;;;;;7.13;6.13;;;;;13.90;100459.00;;;;9614185;30;20245;-82
2023/03/18 08:23:50;;;;;;;9.27;6.43;;;;;13.70;100456.00;;;;9630506;30;20270;-83
2023/03/18 08:28:52;;;;;;;10.30;6.30;;;;;14.00;100455.00;;;;9614876;30;20227;-83
2023/03/18 08:33:56;;;;;;;8.07;6.17;;;;;14.10;100466.00;;;;9601098;30;20206;-84
2023/03/18 08:38:58;;;;;;;9.03;6.23;;;;;14.00;100470.00;;;;9613094;30;20326;-83
2023/03/18 08:44:01;;;;;;;6.07;5.47;;;;;13.90;100467.00;;;;9607034;30;20258;-82
2023/03/18 08:49:05;;;;;;;6.23;5.30;;;;;14.00;100471.00;;;;9604415;30;20208;-82
2023/03/18 08:54:07;;;;;;;7.83;5.50;;;;;14.20;100472.00;;;;9637199;30;20233;-82
2023/03/18 08:59:10;;;;;;;9.30;5.27;;;;;14.80;100465.00;;;;9623368;30;20761;-83
2023/03/18 09:04:12;;;;;;;8.97;4.90;;;;;15.00;100458.00;;;;9637925;30;20227;-82
2023/03/18 09:09:14;;;;;;;7.63;5.13;;;;;15.00;100452.00;;;;9630860;30;20208;-82
2023/03/18 09:14:17;;;;;;;7.85;4.95;;;;;14.90;100466.00;;;;9620432;30;20205;-83
2023/03/18 09:19:22;;;;;;;6.20;4.37;;;;;14.60;100475.00;;;;9600792;30;20354;-82
2023/03/18 09:24:24;;;;;;;6.30;5.10;;;;;14.80;100474.00;;;;9636015;30;20410;-82
2023/03/18 09:29:26;;;;;;;11.53;4.77;;;;;15.10;100469.00;;;;9617513;30;20267;-82
2023/03/18 09:34:28;;;;;;;6.78;4.15;;;;;14.90;100461.00;;;;9945919;24;20230;-81
2023/03/18 09:39:31;;;;;;;7.47;4.55;;;;;14.90;100461.00;;;;9692170;30;20227;-83
2023/03/18 09:44:35;;;;;;;7.83;4.40;;;;;15.10;100458.00;;;;9677000;30;20230;-83
2023/03/18 09:49:58;;;;;;;5.03;3.90;;;;;15.10;100464.00;;;;9684211;30;20250;-82
2023/03/18 09:55:04;;;;;;;5.63;3.90;;;;;14.80;100471.00;;;;9701013;30;20214;-83
2023/03/18 10:00:23;;;;;;;6.57;3.90;;;;;14.40;100472.00;;;;9665012;30;20227;-83
2023/03/18 10:05:51;;;;;;;5.60;3.87;;;;;14.20;100486.00;;;;9695391;30;20207;-83
2023/03/18 10:10:53;;;;;;;6.87;3.90;;;;;14.00;100490.00;;;;9677765;30;20211;-83
2023/03/18 10:15:57;;;;;;;5.77;3.10;;;;;14.00;100498.00;;;;9708791;30;20219;-83
2023/03/18 10:21:10;;;;;;;4.63;2.90;;;;;14.10;100497.00;;;;9704726;30;20265;-83
2023/03/18 10:26:20;;;;;;;3.83;2.83;;;;;14.20;100505.00;;;;9667273;30;20215;-83
2023/03/18 10:31:32;;;;;;;5.47;2.90;;;;;13.90;100505.00;;;;9704538;30;20203;-83
2023/03/18 10:36:48;;;;;;;6.10;3.30;;;;;13.50;100508.00;;;;9732626;30;20762;-83
2023/03/18 10:41:52;;;;;;;5.93;2.83;;;;;13.20;100524.00;;;;9712777;30;20230;-83
2023/03/18 10:47:02;;;;;;;4.73;2.87;;;;;13.30;100522.00;;;;9708985;30;20223;-83
2023/03/18 10:52:17;;;;;;;3.50;2.90;;;;;13.40;100525.00;;;;9681806;30;20294;-82
2023/03/18 10:57:20;;;;;;;4.43;2.87;;;;;13.50;100513.00;;;;9695208;30;20227;-83
2023/03/18 11:02:31;;;;;;;4.97;3.20;;;;;13.60;100520.00;;;;9682716;30;20221;-83
2023/03/18 11:07:33;;;;;;;5.17;3.40;;;;;13.80;100528.00;;;;9689063;30;20319;-83
2023/03/18 11:12:35;;;;;;;6.20;3.63;;;;;14.60;100525.00;;;;9681526;30;20226;-83
2023/03/18 11:17:39;;;;;;;5.75;2.80;;;;;15.40;100519.00;;;;9696919;30;20231;-83
2023/03/18 11:22:47;;;;;;;5.50;2.40;;;;;15.90;100507.00;;;;9693923;30;20218;-83
2023/03/18 11:28:11;;;;;;;4.13;2.28;;;;;16.60;100505.00;;;;9662953;30;20216;-83
2023/03/18 11:33:16;;;;;;;4.63;2.03;;;;;17.40;100498.00;;;;9692942;30;20238;-83
2023/03/18 11:38:26;;;;;;;2.88;1.88;;;;;19.20;100493.00;;;;9716110;30;20303;-83
2023/03/18 11:43:28;;;;;;;3.60;2.13;;;;;20.20;100501.00;;;;9686111;30;20202;-81
2023/03/18 11:48:36;;;;;;;4.40;2.00;;;;;20.30;100494.00;;;;9696094;30;20207;-81
2023/03/18 11:53:45;;;;;;;2.58;1.45;;;;;20.30;100484.00;;;;9676617;30;20278;-81
2023/03/18 11:58:47;;;;;;;2.72;1.40;;;;;20.40;100483.00;;;;9697079;30;20263;-81
2023/03/18 12:03:58;;;;;;;2.70;1.65;;;;;20.50;100478.00;;;;9710963;30;20280;-82
2023/03/18 12:09:09;;;;;;;3.38;1.17;;;;;20.30;100486.00;;;;9694287;30;20245;-82
2023/03/18 12:14:27;;;;;;;4.00;1.30;;;;;20.50;100475.00;;;;9714095;30;20317;-82
2023/03/18 12:20:08;;;;;;;5.03;1.25;;;;;20.90;100475.00;;;;9677390;30;20272;-82
2023/03/18 12:25:34;;;;;;;2.05;0.90;;;;;20.80;100463.00;;;;9666789;30;20314;-82
2023/03/18 12:30:55;;;;;;;2.13;1.08;;;;;19.30;100471.00;;;;9687904;30;20737;-81
2023/03/18 12:36:11;;;;;;;5.78;1.60;;;;;20.30;100460.00;;;;9677233;30;20210;-83
2023/03/18 12:41:34;;;;;;;2.60;1.42;;;;;19.60;100465.00;;;;9696978;30;20303;-82
2023/03/18 12:46:59;;;;;;;2.67;1.05;;;;;19.60;100461.00;;;;9715048;30;20242;-82
2023/03/18 12:52:06;;;;;;;2.15;1.30;;;;;19.60;100458.00;;;;9693057;30;20214;-82
2023/03/18 12:57:44;;;;;;;1.33;1.10;;;;;20.20;100453.00;;;;9681384;30;20219;-82
2023/03/18 13:02:51;;;;;;;2.95;1.55;;;;;20.70;100448.00;;;;9675278;30;20207;-82
2023/03/18 13:08:26;;;;;;;2.67;1.35;;;;;21.20;100436.00;;;;9663274;30;20580;-82
2023/03/18 13:13:32;;;;;;;3.10;1.85;;;;;21.70;100435.00;;;;9685424;30;20854;-83
2023/03/18 13:18:45;;;;;;;4.53;1.35;;;;;21.70;100435.00;;;;9704143;30;20243;-82
2023/03/18 13:23:59;;;;;;;2.65;1.30;;;;;21.40;100438.00;;;;9703392;30;20203;-82
2023/03/18 13:29:26;;;;;;;4.78;1.30;;;;;21.20;100427.00;;;;9717732;30;20306;-82
2023/03/18 13:34:46;;;;;;;3.08;1.48;;;;;20.30;100445.00;;;;9709346;30;20235;-82
2023/03/18 13:40:03;;;;;;;1.92;1.10;;;;;21.30;100436.00;;;;9691734;30;20314;-82
2023/03/18 13:45:30;;;;;;;3.42;1.20;;;;;20.50;100441.00;;;;9723482;30;20698;-82
2023/03/18 13:50:36;;;;;;;2.92;1.20;;;;;20.90;100432.00;;;;9729061;30;20214;-82
2023/03/18 13:55:38;;;;;;;2.60;1.20;;;;;22.30;100393.00;;;;9713587;30;20219;-84
2023/03/18 14:01:04;;;;;;;3.78;1.10;;;;;23.90;100439.00;;;;9740960;30;20230;-84
2023/03/18 14:06:10;;;;;;;3.42;1.15;;;;;25.40;100367.00;;;;9728904;30;20210;-82
2023/03/18 14:11:27;;;;;;;3.22;1.20;;;;;22.50;100431.00;;;;9687583;30;20222;-82
2023/03/18 14:16:51;;;;;;;2.92;1.17;;;;;20.10;100425.00;;;;9732446;30;20240;-84
2023/03/18 14:22:05;;;;;;;5.05;1.10;;;;;19.80;100418.00;;;;9704186;30;20218;-84
2023/03/18 14:27:13;;;;;;;5.18;1.30;;;;;19.90;100415.00;;;;9717448;30;20211;-83
2023/03/18 14:32:37;;;;;;;6.40;1.67;;;;;20.20;100413.00;;;;9703372;30;20237;-81
2023/03/18 14:37:59;;;;;;;2.67;1.20;;;;;20.20;100401.00;;;;9720859;30;20691;-84
2023/03/18 14:43:08;;;;;;;4.40;1.33;;;;;19.30;100404.00;;;;9719021;30;20296;-83
2023/03/18 14:48:17;;;;;;;1.80;1.08;;;;;18.50;100401.00;;;;9702003;30;20297;-83
2023/03/18 14:53:27;;;;;;;5.50;1.60;;;;;17.90;100395.00;;;;9694986;30;20219;-81
2023/03/18 14:58:33;;;;;;;3.42;1.30;;;;;18.10;100388.00;;;;9718391;30;20242;-81
2023/03/18 15:03:38;;;;;;;2.83;1.15;;;;;18.40;100383.00;;;;9702383;30;20532;-82
2023/03/18 15:08:51;;;;;;;2.97;1.10;;;;;18.20;100385.00;;;;9735420;30;20202;-81
2023/03/18 15:13:54;;;;;;;2.88;1.25;;;;;18.30;100375.00;;;;9735934;30;20222;-81
2023/03/18 15:18:59;;;;;;;4.30;1.10;;;;;18.90;100381.00;;;;9750379;30;20284;-81
2023/03/18 15:24:06;;;;;;;5.20;0.98;;;;;18.60;100372.00;;;;9745685;30;20245;-82
2023/03/18 15:29:32;;;;;;;3.10;1.33;;;;;18.60;100364.00;;;;9673617;30;20217;-83
2023/03/18 15:34:40;;;;;;;3.13;1.10;;;;;18.30;100359.00;;;;9683840;30;20245;-82
2023/03/18 15:39:42;;;;;;;4.30;1.20;;;;;18.00;100355.00;;;;9700132;30;20244;-82
2023/03/18 15:44:50;;;;;;;4.72;1.38;;;;;18.30;100349.00;;;;9714425;30;20243;-82
2023/03/18 15:49:59;;;;;;;4.05;1.25;;;;;18.20;100344.00;;;;9697503;30;20211;-82
2023/03/18 15:55:02;;;;;;;3.03;1.10;;;;;17.60;100351.00;;;;9738098;30;20244;-83
2023/03/18 16:00:09;;;;;;;4.70;1.48;;;;;17.30;100340.00;;;;9746734;30;20572;-82
2023/03/18 16:05:18;;;;;;;3.08;1.13;;;;;17.20;100350.00;;;;9685414;30;20218;-82
2023/03/18 16:10:22;;;;;;;3.83;1.25;;;;;17.20;100345.00;;;;9684761;30;20233;-82
2023/03/18 16:15:26;;;;;;;3.45;1.38;;;;;17.10;100355.00;;;;9683735;30;20214;-82
2023/03/18 16:20:30;;;;;;;8.10;1.42;;;;;16.90;100346.00;;;;9715579;30;20229;-82
2023/03/18 16:25:32;;;;;;;4.60;1.45;;;;;16.90;100347.00;;;;9691688;30;20708;-82
2023/03/18 16:30:38;;;;;;;7.25;1.70;;;;;16.90;100341.00;;;;9699536;30;20261;-82
2023/03/18 16:35:41;;;;;;;2.63;1.45;;;;;16.90;100338.00;;;;9712538;30;20210;-82
2023/03/18 16:40:45;;;;;;;2.30;1.35;;;;;17.00;100344.00;;;;9721612;30;20233;-82
2023/03/18 16:45:49;;;;;;;8.65;1.77;;;;;16.90;100325.00;;;;9697997;30;20222;-82
2023/03/18 16:50:52;;;;;;;3.88;1.23;;;;;16.50;100340.00;;;;9720838;30;20306;-82
2023/03/18 16:55:57;;;;;;;4.00;1.42;;;;;16.10;100342.00;;;;9722859;30;20212;-82
2023/03/18 17:00:59;;;;;;;4.88;1.42;;;;;15.90;100351.00;;;;9692512;30;20223;-82
2023/03/18 17:06:01;;;;;;;3.35;1.50;;;;;15.70;100362.00;;;;9722187;30;20217;-83
2023/03/18 17:11:04;;;;;;;2.47;1.60;;;;;15.50;100369.00;;;;9741449;30;20214;-82
2023/03/18 17:16:15;;;;;;;5.82;1.52;;;;;15.30;100378.00;;;;9736268;30;20219;-82
2023/03/18 17:21:17;;;;;;;3.95;1.63;;;;;15.10;100388.00;;;;9744089;30;20234;-83
2023/03/18 17:26:20;;;;;;;3.97;1.60;;;;;15.00;100395.00;;;;9747759;30;20221;-82
2023/03/18 17:31:22;;;;;;;5.30;1.77;;;;;14.90;100488.00;;;;9740164;30;20214;-82
2023/03/18 17:36:24;;;;;;;3.93;0.60;;;;;14.10;100505.00;;;;9742372;30;20230;-80
2023/03/18 17:41:26;;;;;;;3.83;0.70;;;;;12.50;100503.00;;;;9737322;30;20585;-78
2023/03/18 17:46:29;;;;;;;2.53;0.70;;;;;11.70;100509.00;;;;9718581;30;20214;-78
2023/03/18 17:51:32;;;;;;;2.90;0.90;;;;;11.30;100515.00;;;;9722922;30;20206;-79
2023/03/18 17:56:35;;;;;;;0.87;0.63;;;;;11.10;100513.00;;;;9695207;30;20207;-79
2023/03/18 18:01:37;;;;;;;1.40;0.50;;;;;11.00;100509.00;;;;9704227;30;20235;-81
2023/03/18 18:06:40;;;;;;;0.87;0.60;;;;;10.90;100500.00;;;;9692587;30;20283;-80
2023/03/18 18:11:45;;;;;;;0.60;0.50;;;;;10.90;100514.00;;;;9692934;30;20212;-82
2023/03/18 18:16:47;;;;;;;1.47;0.80;;;;;10.80;100518.00;;;;9700297;30;20243;-79
2023/03/18 18:21:50;;;;;;;1.13;0.70;;;;;10.80;100526.00;;;;9695412;30;20924;-81
2023/03/18 18:26:53;;;;;;;1.20;0.60;;;;;10.70;100523.00;;;;9701196;30;20220;-81
2023/03/18 18:31:56;;;;;;;3.20;1.00;;;;;10.70;100523.00;;;;9704982;30;20251;-81
2023/03/18 18:36:58;;;;;;;3.50;1.00;;;;;10.70;100511.00;;;;9699186;30;20291;-79
2023/03/18 18:42:00;;;;;;;1.47;1.20;;;;;10.70;100515.00;;;;9697243;30;20234;-80
2023/03/18 18:47:02;;;;;;;3.90;1.70;;;;;10.70;100511.00;;;;9701338;30;20541;-79
2023/03/18 18:52:05;;;;;;;5.10;1.77;;;;;10.70;100525.00;;;;9710799;30;20305;-79
2023/03/18 18:57:24;;;;;;;1.83;1.30;;;;;10.70;100520.00;;;;9720673;30;20225;-81
2023/03/18 19:02:29;;;;;;;3.17;1.50;;;;;10.70;100524.00;;;;9712088;30;20210;-80
2023/03/18 19:07:32;;;;;;;1.87;1.40;;;;;10.70;100525.00;;;;9700034;30;20576;-81
2023/03/18 19:12:34;;;;;;;1.53;1.30;;;;;10.80;100525.00;;;;9731452;30;20226;-82
2023/03/18 19:17:38;;;;;;;2.73;1.40;;;;;10.80;100534.00;;;;9689980;30;20237;-82
2023/03/18 19:22:40;;;;;;;1.90;1.50;;;;;10.80;100534.00;;;;9680611;30;20216;-82
2023/03/18 19:27:42;;;;;;;5.83;2.00;;;;;10.80;100539.00;;;;9702637;30;20274;-82
2023/03/18 19:32:44;;;;;;;4.43;1.70;;;;;10.80;100536.00;;;;9702888;30;20284;-83
2023/03/18 19:37:47;;;;;;;2.93;1.90;;;;;10.80;100540.00;;;;9709324;30;20321;-82
2023/03/18 19:42:49;;;;;;;3.53;2.20;;;;;10.80;100535.00;;;;9736741;30;20238;-83
2023/03/18 19:47:52;;;;;;;6.00;2.50;;;;;10.90;100537.00;;;;9679283;30;20227;-84
2023/03/18 19:52:55;;;;;;;4.77;2.37;;;;;10.90;100533.00;;;;9717303;30;20825;-83
2023/03/18 19:57:57;;;;;;;4.30;2.10;;;;;10.90;100537.00;;;;9723095;30;20223;-84
2023/03/18 20:03:00;;;;;;;5.57;2.27;;;;;10.90;100544.00;;;;9716391;30;20225;-83
2023/03/18 20:08:02;;;;;;;4.77;2.50;;;;;10.80;100544.00;;;;9715577;30;20223;-82
2023/03/18 20:13:04;;;;;;;4.73;2.73;;;;;10.90;100547.00;;;;9699206;30;20273;-84
2023/03/18 20:18:16;;;;;;;4.67;2.40;;;;;10.90;100537.00;;;;9701236;30;20230;-83
2023/03/18 20:23:24;;;;;;;3.53;2.83;;;;;10.90;100555.00;;;;9718098;30;20287;-84
2023/03/18 20:28:26;;;;;;;3.80;2.80;;;;;10.80;100561.00;;;;9737264;30;20241;-83
2023/03/18 20:33:31;;;;;;;5.37;2.77;;;;;10.80;100572.00;;;;9714279;30;20672;-79
2023/03/18 20:38:36;;;;;;;4.27;3.13;;;;;10.60;100580.00;;;;9693943;30;20704;-78
2023/03/18 20:43:38;;;;;;;5.37;3.37;;;;;10.60;100574.00;;;;9701290;30;20215;-79
2023/03/18 20:48:42;;;;;;;4.17;3.40;;;;;10.60;100576.00;;;;9704677;30;20683;-78
2023/03/18 20:53:44;;;;;;;3.23;2.90;;;;;10.50;100571.00;;;;9729079;30;20240;-78
2023/03/18 20:58:47;;;;;;;3.60;3.27;;;;;10.50;100572.00;;;;9730446;30;20238;-81
2023/03/18 21:03:50;;;;;;;4.57;3.03;;;;;10.40;100566.00;;;;9709297;30;20223;-77
2023/03/18 21:08:52;;;;;;;6.37;2.47;;;;;10.40;100571.00;;;;9693669;30;20210;-79
2023/03/18 21:13:55;;;;;;;5.07;2.40;;;;;10.40;100563.00;;;;9722707;30;20226;-79
2023/03/18 21:18:57;;;;;;;4.57;2.30;;;;;10.40;100565.00;;;;9678066;30;20220;-78
2023/03/18 21:23:59;;;;;;;3.27;2.50;;;;;10.30;100564.00;;;;9687975;30;20310;-78
2023/03/18 21:29:01;;;;;;;4.93;2.70;;;;;10.30;100566.00;;;;9653599;30;20380;-78
2023/03/18 21:34:03;;;;;;;3.00;2.50;;;;;10.40;100557.00;;;;9670902;30;20312;-79
2023/03/18 21:39:06;;;;;;;3.47;1.87;;;;;10.40;100563.00;;;;9681097;30;20230;-79
2023/03/18 21:44:09;;;;;;;1.50;1.40;;;;;10.40;100563.00;;;;9680072;30;20211;-80
2023/03/18 21:49:11;;;;;;;3.57;1.83;;;;;10.40;100557.00;;;;9722038;30;20222;-80
2023/03/18 21:54:17;;;;;;;2.23;1.50;;;;;10.40;100560.00;;;;9705009;30;20203;-79
2023/03/18 21:59:19;;;;;;;1.60;1.50;;;;;10.40;100550.00;;;;9693452;30;20223;-80
2023/03/18 22:04:21;;;;;;;2.20;1.20;;;;;10.40;100550.00;;;;9693463;30;20246;-77
2023/03/18 22:09:25;;;;;;;5.47;1.97;;;;;10.40;100548.00;;;;9678493;30;20308;-78
2023/03/18 22:14:27;;;;;;;4.57;1.80;;;;;10.40;100547.00;;;;9716109;30;21720;-78
2023/03/18 22:19:29;;;;;;;3.93;1.90;;;;;10.40;100544.00;;;;9708637;30;20297;-77
2023/03/18 22:24:32;;;;;;;3.97;2.17;;;;;10.40;100542.00;;;;9676509;30;20301;-77
2023/03/18 22:29:34;;;;;;;5.53;2.37;;;;;10.30;100537.00;;;;9689581;30;20746;-77
2023/03/18 22:34:36;;;;;;;2.83;2.07;;;;;10.30;100537.00;;;;9670328;30;20326;-78
2023/03/18 22:39:38;;;;;;;4.87;2.13;;;;;10.30;100536.00;;;;9699141;30;20247;-78
2023/03/18 22:44:40;;;;;;;2.57;1.97;;;;;10.30;100526.00;;;;9705893;30;20984;-78
2023/03/18 22:49:42;;;;;;;3.63;2.00;;;;;10.30;100528.00;;;;9705072;30;21769;-80
2023/03/18 22:54:46;;;;;;;6.17;2.20;;;;;10.30;100539.00;;;;9677857;30;20211;-79
2023/03/18 22:59:48;;;;;;;2.83;2.17;;;;;10.30;100539.00;;;;9695874;30;20230;-80
2023/03/18 23:04:51;;;;;;;5.13;2.23;;;;;10.30;100524.00;;;;9702216;30;20230;-79
2023/03/18 23:09:55;;;;;;;4.23;3.30;;;;;10.30;100519.00;;;;9720312;30;20290;-81
2023/03/18 23:14:58;;;;;;;3.20;2.13;;;;;10.30;100526.00;;;;9712130;30;20858;-81
2023/03/18 23:20:00;;;;;;;4.23;2.43;;;;;10.30;100525.00;;;;9710189;30;20266;-80
2023/03/18 23:25:03;;;;;;;4.90;2.67;;;;;10.30;100529.00;;;;9665625;30;20215;-81
2023/03/18 23:30:06;;;;;;;3.63;2.53;;;;;10.40;100542.00;;;;9664889;30;20251;-80
2023/03/18 23:35:08;;;;;;;4.47;3.00;;;;;10.30;100534.00;;;;9658949;30;20232;-78
2023/03/18 23:40:11;;;;;;;7.70;3.00;;;;;10.30;100534.00;;;;9678669;30;20274;-78
2023/03/18 23:45:13;;;;;;;4.30;2.90;;;;;10.20;100544.00;;;;9705457;30;20230;-78
2023/03/18 23:50:15;;;;;;;5.13;3.00;;;;;10.20;100533.00;;;;9694190;30;20465;-79
2023/03/18 23:55:17;;;;;;;5.23;2.87;;;;;10.30;100549.00;;;;9710577;30;20217;-78
